Time;durP1;ratioP1;P1;durP2;ratioP2;P2;SDS_P1;SDS_P2;PMS_P1;PMS_P2;Temp;Humidity;BMP_temperature;BMP_pressure;BME280_temperature;BME280_humidity;BME280_pressure;Samples;Min_cycle;Max_cycle;Signal;HPM_P1;HPM_P2
2024/02/02 00:01:35;;;;;;;35.80;10.40;;;7.10;99.90;;;;;;7291393;19;20210;-80
2024/02/02 00:04:02;;;;;;;31.47;10.37;;;7.00;99.90;;;;;;7289301;19;20241;-81
2024/02/02 00:06:28;;;;;;;34.83;11.03;;;7.00;99.90;;;;;;7288761;19;20223;-80
2024/02/02 00:08:54;;;;;;;47.30;10.87;;;7.10;99.90;;;;;;7309696;19;20205;-81
2024/02/02 00:11:20;;;;;;;30.60;11.27;;;7.30;99.90;;;;;;7287932;19;20699;-80
2024/02/02 00:13:46;;;;;;;38.63;11.60;;;7.40;99.90;;;;;;7288435;19;20646;-80
2024/02/02 00:16:12;;;;;;;38.60;12.57;;;7.30;99.90;;;;;;7282385;19;20231;-81
2024/02/02 00:18:41;;;;;;;47.57;12.63;;;7.30;99.90;;;;;;7280168;19;20204;-80
2024/02/02 00:21:07;;;;;;;39.80;12.00;;;7.30;99.90;;;;;;7283904;19;20193;-80
2024/02/02 00:23:33;;;;;;;47.23;12.13;;;7.30;99.90;;;;;;7292062;19;20196;-80
2024/02/02 00:25:59;;;;;;;37.53;11.07;;;7.20;99.90;;;;;;7290775;19;20264;-80
2024/02/02 00:28:28;;;;;;;43.77;12.03;;;7.20;99.90;;;;;;7298066;19;20191;-80
2024/02/02 00:30:53;;;;;;;34.63;11.00;;;7.10;99.90;;;;;;7315289;19;20288;-79
2024/02/02 00:33:19;;;;;;;34.03;10.77;;;7.10;99.90;;;;;;7287706;19;20184;-79
2024/02/02 00:35:45;;;;;;;34.17;10.83;;;7.00;99.90;;;;;;7280476;19;20197;-80
2024/02/02 00:38:11;;;;;;;35.33;11.43;;;7.00;99.90;;;;;;7276087;19;20188;-79
2024/02/02 00:40:37;;;;;;;40.20;12.20;;;7.00;99.90;;;;;;7276267;19;20186;-79
2024/02/02 00:43:03;;;;;;;37.93;12.13;;;7.00;99.90;;;;;;7277425;19;20313;-79
2024/02/02 00:45:29;;;;;;;48.33;12.53;;;7.10;99.90;;;;;;7277779;19;20186;-78
2024/02/02 00:47:55;;;;;;;40.20;12.20;;;7.00;99.90;;;;;;7304160;19;20189;-79
2024/02/02 00:50:20;;;;;;;42.27;11.87;;;7.10;99.90;;;;;;7281283;19;20220;-80
2024/02/02 00:52:46;;;;;;;39.00;13.03;;;7.10;99.90;;;;;;7280466;19;20285;-80
2024/02/02 00:55:12;;;;;;;48.23;13.20;;;7.10;99.90;;;;;;7280193;19;20193;-80
2024/02/02 00:57:38;;;;;;;30.90;11.80;;;7.10;99.90;;;;;;7279411;19;20203;-80
2024/02/02 01:00:05;;;;;;;39.10;12.23;;;7.10;99.90;;;;;;7278938;19;20193;-80
2024/02/02 01:02:32;;;;;;;45.70;13.13;;;7.00;99.90;;;;;;7276276;19;20228;-80
2024/02/02 01:04:58;;;;;;;42.77;12.70;;;7.10;99.90;;;;;;7276143;19;20246;-79
2024/02/02 01:07:24;;;;;;;42.47;13.50;;;7.00;99.90;;;;;;7302979;19;20286;-79
2024/02/02 01:09:50;;;;;;;41.63;12.83;;;6.90;99.90;;;;;;7279841;19;20196;-79
2024/02/02 01:12:15;;;;;;;39.83;12.73;;;7.00;99.90;;;;;;7281663;19;20206;-80
2024/02/02 01:14:41;;;;;;;43.60;13.90;;;7.00;99.90;;;;;;7282028;19;20297;-79
2024/02/02 01:17:07;;;;;;;44.87;12.97;;;7.10;99.90;;;;;;7275635;19;20185;-80
2024/02/02 01:19:35;;;;;;;37.17;12.83;;;7.20;99.90;;;;;;7285418;19;20210;-79
2024/02/02 01:22:01;;;;;;;44.13;12.67;;;7.30;99.90;;;;;;7288148;19;20288;-78
2024/02/02 01:24:27;;;;;;;50.80;13.53;;;7.30;99.90;;;;;;7302096;19;20196;-79
2024/02/02 01:26:52;;;;;;;40.53;13.97;;;7.30;99.90;;;;;;7298730;19;20560;-78
2024/02/02 01:29:18;;;;;;;48.03;13.50;;;7.40;99.90;;;;;;7287707;19;20235;-79
2024/02/02 01:31:44;;;;;;;44.08;14.88;;;7.40;99.90;;;;;;7285055;19;20707;-78
2024/02/02 01:34:10;;;;;;;41.43;13.43;;;7.30;99.90;;;;;;7285136;19;20220;-79
2024/02/02 01:36:36;;;;;;;40.20;13.70;;;7.30;99.90;;;;;;7284154;19;20556;-78
2024/02/02 01:39:04;;;;;;;37.83;12.27;;;7.40;99.90;;;;;;7285671;19;20265;-79
2024/02/02 01:41:30;;;;;;;42.17;12.90;;;7.40;99.90;;;;;;7287940;19;20194;-79
2024/02/02 01:43:55;;;;;;;47.73;13.77;;;7.40;99.90;;;;;;7308162;19;20185;-78
2024/02/02 01:46:22;;;;;;;40.07;13.33;;;7.40;99.90;;;;;;7288901;19;20203;-79
2024/02/02 01:48:48;;;;;;;41.80;13.73;;;7.30;99.90;;;;;;7286403;19;20181;-79
2024/02/02 01:51:13;;;;;;;37.20;12.57;;;7.30;99.90;;;;;;7286838;19;20191;-79
2024/02/02 01:53:40;;;;;;;35.27;13.10;;;7.30;99.90;;;;;;7286767;19;20202;-79
2024/02/02 01:56:06;;;;;;;37.83;12.40;;;7.30;99.90;;;;;;7287072;19;20301;-79
2024/02/02 01:58:32;;;;;;;34.73;12.33;;;7.30;99.90;;;;;;7286501;19;20193;-79
2024/02/02 02:00:58;;;;;;;33.47;11.60;;;7.30;99.90;;;;;;7292822;19;20186;-78
2024/02/02 02:03:23;;;;;;;35.83;12.07;;;7.30;99.90;;;;;;7308931;19;20184;-79
2024/02/02 02:05:49;;;;;;;41.17;12.50;;;7.30;99.90;;;;;;7286855;19;20189;-78
2024/02/02 02:08:15;;;;;;;42.50;12.27;;;7.20;99.90;;;;;;7307927;19;20182;-78
2024/02/02 02:10:43;;;;;;;37.77;11.90;;;7.10;99.90;;;;;;7286392;19;20280;-79
2024/02/02 02:13:08;;;;;;;34.53;11.90;;;7.00;99.90;;;;;;7285295;19;20186;-78
2024/02/02 02:15:34;;;;;;;34.30;12.20;;;7.00;99.90;;;;;;7286570;19;20196;-79
2024/02/02 02:18:00;;;;;;;45.37;12.67;;;6.90;99.90;;;;;;7284175;19;20193;-78
2024/02/02 02:20:29;;;;;;;38.63;12.97;;;6.80;99.90;;;;;;7310182;19;20248;-79
2024/02/02 02:22:54;;;;;;;37.60;13.07;;;6.70;99.90;;;;;;7287397;19;20210;-79
2024/02/02 02:25:20;;;;;;;43.80;12.87;;;6.70;99.90;;;;;;7285075;19;20197;-79
2024/02/02 02:27:46;;;;;;;37.87;12.83;;;6.70;99.90;;;;;;7285515;19;20217;-79
2024/02/02 02:30:13;;;;;;;33.57;12.17;;;6.70;99.90;;;;;;7284843;19;20185;-79
2024/02/02 02:32:39;;;;;;;38.63;12.50;;;6.60;99.90;;;;;;7287134;19;20258;-79
2024/02/02 02:35:05;;;;;;;32.70;11.67;;;6.60;99.90;;;;;;7285036;19;20215;-79
2024/02/02 02:37:31;;;;;;;44.17;13.07;;;6.60;99.90;;;;;;7283631;19;20182;-79
2024/02/02 02:39:57;;;;;;;34.33;11.90;;;6.60;99.90;;;;;;7302211;19;20187;-80
2024/02/02 02:42:23;;;;;;;31.20;11.43;;;6.60;99.90;;;;;;7309057;19;20210;-79
2024/02/02 02:44:49;;;;;;;37.97;12.00;;;6.70;99.90;;;;;;7285347;19;20177;-79
2024/02/02 02:47:15;;;;;;;41.23;12.33;;;6.70;99.90;;;;;;7285591;19;20215;-80
2024/02/02 02:49:41;;;;;;;34.27;12.20;;;6.70;99.90;;;;;;7284842;19;20177;-79
2024/02/02 02:52:06;;;;;;;32.60;11.93;;;6.70;99.90;;;;;;7283854;19;20196;-79
2024/02/02 02:54:32;;;;;;;27.03;10.77;;;6.70;99.90;;;;;;7284400;19;20184;-79
2024/02/02 02:56:59;;;;;;;31.83;10.40;;;6.60;99.90;;;;;;7287135;19;20210;-79
2024/02/02 02:59:24;;;;;;;39.87;11.43;;;6.60;99.90;;;;;;7306390;19;20177;-79
2024/02/02 03:01:50;;;;;;;39.20;11.43;;;6.60;99.90;;;;;;7284638;19;20185;-79
2024/02/02 03:04:16;;;;;;;34.90;10.90;;;6.50;99.90;;;;;;7282469;19;20199;-80
2024/02/02 03:06:42;;;;;;;32.13;11.57;;;6.50;99.90;;;;;;7285057;19;20191;-79
2024/02/02 03:09:08;;;;;;;35.03;10.60;;;6.50;99.90;;;;;;7284433;19;20199;-79
2024/02/02 03:11:33;;;;;;;36.73;10.07;;;6.50;99.90;;;;;;7282573;19;20192;-79
2024/02/02 03:14:00;;;;;;;30.60;10.33;;;6.40;99.90;;;;;;7284539;19;20196;-79
2024/02/02 03:16:26;;;;;;;27.40;9.83;;;6.40;99.90;;;;;;7306808;19;20189;-79
2024/02/02 03:18:52;;;;;;;32.20;9.40;;;6.40;99.90;;;;;;7283590;19;20205;-79
2024/02/02 03:21:18;;;;;;;30.83;9.50;;;6.40;99.90;;;;;;7284436;19;20534;-79
2024/02/02 03:23:44;;;;;;;29.00;9.27;;;6.40;99.90;;;;;;7281346;19;20191;-80
2024/02/02 03:26:10;;;;;;;32.07;10.10;;;6.40;99.90;;;;;;7283400;19;20198;-80
2024/02/02 03:28:36;;;;;;;33.20;8.83;;;6.50;99.90;;;;;;7283026;19;20185;-79
2024/02/02 03:31:02;;;;;;;27.63;9.53;;;6.50;99.90;;;;;;7284002;19;20576;-79
2024/02/02 03:33:28;;;;;;;30.37;8.80;;;6.60;99.90;;;;;;7292160;19;20186;-79
2024/02/02 03:35:53;;;;;;;23.77;8.47;;;6.60;99.90;;;;;;7305370;19;20199;-79
2024/02/02 03:38:19;;;;;;;30.37;8.33;;;6.60;99.90;;;;;;7282279;19;20564;-80
2024/02/02 03:40:45;;;;;;;31.17;8.83;;;6.60;99.90;;;;;;7281572;19;20224;-80
2024/02/02 03:43:11;;;;;;;29.87;8.37;;;6.70;99.90;;;;;;7281269;19;20196;-80
2024/02/02 03:45:37;;;;;;;27.07;8.07;;;6.70;99.90;;;;;;7282275;19;20192;-79
2024/02/02 03:48:03;;;;;;;33.53;9.23;;;6.60;99.90;;;;;;7282759;19;20214;-79
2024/02/02 03:50:29;;;;;;;29.40;8.13;;;6.70;99.90;;;;;;7282155;19;20182;-80
2024/02/02 03:52:55;;;;;;;36.77;8.23;;;6.70;99.90;;;;;;7305101;19;20716;-80
2024/02/02 03:55:21;;;;;;;36.20;8.27;;;6.70;99.90;;;;;;7284497;19;20193;-80
2024/02/02 03:57:47;;;;;;;24.57;7.47;;;6.50;99.90;;;;;;7283036;19;20198;-79
2024/02/02 04:00:13;;;;;;;31.70;8.23;;;6.60;99.90;;;;;;7283083;19;20191;-79
2024/02/02 04:02:39;;;;;;;25.63;7.37;;;6.70;99.90;;;;;;7282399;19;20213;-80
2024/02/02 04:05:06;;;;;;;27.57;7.27;;;6.60;99.90;;;;;;7280940;19;20741;-79
2024/02/02 04:07:32;;;;;;;24.83;6.90;;;6.60;99.90;;;;;;7282272;19;20765;-80
2024/02/02 04:09:57;;;;;;;24.63;6.87;;;6.60;99.90;;;;;;7292584;19;20282;-79
2024/02/02 04:12:23;;;;;;;30.63;7.00;;;6.80;99.90;;;;;;7299007;19;20275;-80
2024/02/02 04:14:49;;;;;;;30.27;6.10;;;6.80;99.90;;;;;;7284201;19;20201;-80
2024/02/02 04:17:15;;;;;;;29.60;6.53;;;6.70;99.90;;;;;;7280420;19;20189;-80
2024/02/02 04:19:40;;;;;;;27.93;6.80;;;6.80;99.90;;;;;;7279753;19;20964;-80
2024/02/02 04:22:06;;;;;;;25.33;5.87;;;6.80;99.90;;;;;;7281752;19;20238;-80
2024/02/02 04:24:32;;;;;;;28.77;5.83;;;6.60;99.90;;;;;;7281444;19;20298;-80
2024/02/02 04:26:58;;;;;;;23.73;5.57;;;6.60;99.90;;;;;;7293473;19;20201;-80
2024/02/02 04:29:23;;;;;;;28.73;5.63;;;6.70;99.90;;;;;;7298502;19;20177;-79
2024/02/02 04:31:49;;;;;;;22.37;5.47;;;6.80;99.90;;;;;;7279506;19;20246;-81
2024/02/02 04:34:15;;;;;;;25.33;6.07;;;6.90;99.90;;;;;;7279488;19;20201;-80
2024/02/02 04:36:41;;;;;;;26.17;5.67;;;6.90;99.90;;;;;;7279529;19;20258;-79
2024/02/02 04:39:08;;;;;;;30.67;5.80;;;6.80;99.90;;;;;;7280143;19;21008;-79
2024/02/02 04:41:34;;;;;;;28.10;5.17;;;6.80;99.90;;;;;;7280345;19;20185;-80
2024/02/02 04:44:00;;;;;;;27.73;5.73;;;6.70;99.90;;;;;;7279917;19;20704;-79
2024/02/02 04:46:26;;;;;;;20.47;5.30;;;6.70;99.90;;;;;;7300913;19;20258;-79
2024/02/02 04:48:52;;;;;;;25.53;5.83;;;6.70;99.90;;;;;;7281380;19;20184;-79
2024/02/02 04:51:18;;;;;;;33.47;6.47;;;6.60;99.90;;;;;;7281963;19;20271;-79
2024/02/02 04:53:43;;;;;;;23.10;4.63;;;6.60;99.90;;;;;;7285343;19;20220;-79
2024/02/02 04:56:09;;;;;;;22.73;5.00;;;6.60;99.90;;;;;;7288299;19;20204;-80
2024/02/02 04:58:35;;;;;;;23.70;4.77;;;6.60;99.90;;;;;;7286563;19;20199;-80
2024/02/02 05:01:01;;;;;;;25.33;5.17;;;6.50;99.90;;;;;;7287850;19;20181;-79
2024/02/02 05:03:27;;;;;;;31.93;5.10;;;6.50;99.90;;;;;;7310567;19;20200;-80
2024/02/02 05:05:53;;;;;;;27.07;4.90;;;6.50;99.90;;;;;;7289389;19;20659;-79
2024/02/02 05:08:20;;;;;;;25.83;4.47;;;6.40;99.90;;;;;;7288334;19;20209;-80
2024/02/02 05:10:46;;;;;;;24.37;5.33;;;6.50;99.90;;;;;;7288385;19;20962;-79
2024/02/02 05:13:11;;;;;;;23.43;4.57;;;6.40;99.90;;;;;;7287816;19;20200;-80
2024/02/02 05:15:37;;;;;;;22.07;4.23;;;6.50;99.90;;;;;;7287570;19;20192;-79
2024/02/02 05:18:03;;;;;;;23.73;5.10;;;6.50;99.90;;;;;;7288502;19;20202;-81
2024/02/02 05:20:29;;;;;;;30.23;5.00;;;6.50;99.90;;;;;;7286957;19;20189;-79
2024/02/02 05:22:55;;;;;;;26.37;4.80;;;6.50;99.90;;;;;;7310340;19;20874;-80
2024/02/02 05:25:21;;;;;;;25.40;4.70;;;6.50;99.90;;;;;;7285628;19;20182;-79
2024/02/02 05:27:46;;;;;;;29.00;4.70;;;6.50;99.90;;;;;;7286907;19;21062;-79
2024/02/02 05:30:12;;;;;;;24.37;4.70;;;6.50;99.90;;;;;;7287883;19;20611;-79
2024/02/02 05:32:38;;;;;;;21.97;4.30;;;6.50;99.90;;;;;;7288108;19;20695;-79
2024/02/02 05:35:04;;;;;;;18.57;4.43;;;6.50;99.90;;;;;;7287055;19;20252;-81
2024/02/02 05:37:30;;;;;;;26.27;4.50;;;6.40;99.90;;;;;;7286088;19;20244;-79
2024/02/02 05:39:56;;;;;;;31.53;4.73;;;6.40;99.90;;;;;;7309253;19;20683;-80
2024/02/02 05:42:22;;;;;;;28.30;4.90;;;6.40;99.90;;;;;;7287247;19;20185;-79
2024/02/02 05:44:48;;;;;;;27.10;4.53;;;6.50;99.90;;;;;;7285949;19;20271;-80
2024/02/02 05:47:13;;;;;;;26.87;4.57;;;6.40;99.90;;;;;;7287347;19;20191;-80
2024/02/02 05:49:39;;;;;;;27.83;4.87;;;6.50;99.90;;;;;;7287957;19;20198;-79
2024/02/02 05:52:05;;;;;;;23.73;4.13;;;6.50;99.90;;;;;;7285863;19;20187;-82
2024/02/02 05:54:32;;;;;;;22.33;3.63;;;6.50;99.90;;;;;;7285320;19;20201;-80
2024/02/02 05:56:58;;;;;;;26.83;4.20;;;6.60;99.90;;;;;;7304699;19;20190;-79
2024/02/02 05:59:23;;;;;;;29.63;4.20;;;6.50;99.90;;;;;;7299786;19;20185;-80
2024/02/02 06:01:49;;;;;;;20.27;3.63;;;6.50;99.90;;;;;;7286786;19;20190;-79
2024/02/02 06:04:15;;;;;;;25.53;5.17;;;6.40;99.90;;;;;;7285239;19;20188;-79
2024/02/02 06:06:41;;;;;;;22.27;3.90;;;6.40;99.90;;;;;;7286106;19;20197;-79
2024/02/02 06:09:09;;;;;;;22.07;3.97;;;6.40;99.90;;;;;;7287552;19;20183;-80
2024/02/02 06:11:35;;;;;;;28.83;3.90;;;6.50;99.90;;;;;;7286483;19;20196;-84
2024/02/02 06:14:01;;;;;;;19.53;3.33;;;6.40;99.90;;;;;;7287663;19;20191;-83
2024/02/02 06:16:27;;;;;;;25.87;3.97;;;6.30;99.90;;;;;;7307652;19;20189;-81
2024/02/02 06:18:54;;;;;;;22.63;4.27;;;6.40;99.90;;;;;;7287214;19;20540;-84
2024/02/02 06:21:20;;;;;;;21.33;3.67;;;6.40;99.90;;;;;;7285734;19;20612;-83
2024/02/02 06:23:45;;;;;;;24.63;4.20;;;6.40;99.90;;;;;;7286133;19;20193;-85
2024/02/02 06:26:11;;;;;;;22.27;3.60;;;6.30;99.90;;;;;;7285392;19;20519;-83
2024/02/02 06:28:37;;;;;;;25.53;3.73;;;6.30;99.90;;;;;;7282654;19;20197;-84
2024/02/02 06:31:04;;;;;;;23.63;4.00;;;6.30;99.90;;;;;;7284175;19;20217;-84
2024/02/02 06:33:30;;;;;;;22.97;4.43;;;6.20;99.90;;;;;;7287735;19;20248;-85
2024/02/02 06:35:56;;;;;;;27.20;3.87;;;6.20;99.90;;;;;;7309794;19;20210;-85
2024/02/02 06:38:21;;;;;;;17.60;3.17;;;6.20;99.90;;;;;;7283340;19;20244;-84
2024/02/02 06:40:47;;;;;;;16.77;3.90;;;6.30;99.90;;;;;;7290959;19;20314;-84
2024/02/02 06:43:13;;;;;;;22.17;4.20;;;6.30;99.90;;;;;;7289763;19;20192;-84
2024/02/02 06:45:39;;;;;;;29.73;4.40;;;6.40;99.90;;;;;;7291993;19;20189;-84
2024/02/02 06:48:09;;;;;;;24.70;4.53;;;6.40;99.90;;;;;;7290304;19;20217;-83
2024/02/02 06:50:35;;;;;;;18.30;4.63;;;6.30;99.90;;;;;;7289538;19;20192;-83
2024/02/02 06:53:02;;;;;;;24.97;4.00;;;6.30;99.90;;;;;;7288484;19;20200;-85
2024/02/02 06:55:28;;;;;;;23.60;4.20;;;6.30;99.90;;;;;;7305358;19;20194;-82
2024/02/02 06:57:54;;;;;;;19.70;4.10;;;6.30;99.90;;;;;;7305613;19;20664;-84
2024/02/02 07:00:20;;;;;;;21.70;3.77;;;6.30;99.90;;;;;;7284879;19;20192;-85
2024/02/02 07:02:46;;;;;;;23.23;3.80;;;6.40;99.90;;;;;;7286050;19;20199;-84
2024/02/02 07:05:15;;;;;;;25.13;4.20;;;6.30;99.90;;;;;;7284752;19;20195;-84
2024/02/02 07:07:41;;;;;;;24.70;5.23;;;6.30;99.90;;;;;;7285973;19;20224;-84
2024/02/02 07:10:15;;;;;;;26.00;4.13;;;6.40;99.90;;;;;;7285801;19;20543;-84
2024/02/02 07:12:56;;;;;;;21.70;4.23;;;6.30;99.90;;;;;;7284634;19;20186;-84
2024/02/02 07:15:24;;;;;;;20.73;4.43;;;6.20;99.90;;;;;;7286458;19;20218;-84
2024/02/02 07:17:50;;;;;;;29.70;4.67;;;6.20;99.90;;;;;;7281269;19;20188;-83
2024/02/02 07:20:57;;;;;;;22.90;3.93;;;6.20;99.90;;;;;;7285881;19;20193;-84
2024/02/02 07:23:35;;;;;;;18.43;3.93;;;6.20;99.90;;;;;;7183997;19;2004591;-84
2024/02/02 07:26:04;;;;;;;24.87;4.50;;;6.20;99.90;;;;;;7263740;19;20195;-84
2024/02/02 07:28:41;;;;;;;27.43;4.13;;;6.30;99.90;;;;;;7286244;19;20195;-83
2024/02/02 07:31:08;;;;;;;25.07;4.40;;;6.20;99.90;;;;;;7292077;19;20191;-83
2024/02/02 07:33:37;;;;;;;25.83;4.37;;;6.20;99.90;;;;;;7291341;19;20187;-83
2024/02/02 07:36:04;;;;;;;28.73;4.50;;;6.20;99.90;;;;;;7285159;19;20366;-83
2024/02/02 07:38:47;;;;;;;31.27;4.67;;;6.30;99.90;;;;;;7283814;19;20213;-85
2024/02/02 07:41:18;;;;;;;27.40;4.60;;;6.30;99.90;;;;;;7285968;19;20193;-85
2024/02/02 07:43:45;;;;;;;23.53;4.77;;;6.40;99.90;;;;;;7284756;19;20216;-85
2024/02/02 07:46:13;;;;;;;21.97;4.43;;;6.30;99.90;;;;;;7285038;19;20186;-85
2024/02/02 07:48:40;;;;;;;29.37;5.57;;;6.30;99.90;;;;;;7283217;19;20208;-85
2024/02/02 07:51:07;;;;;;;26.23;4.83;;;6.30;99.90;;;;;;7285934;19;20195;-85
2024/02/02 07:53:33;;;;;;;27.93;5.13;;;6.30;99.90;;;;;;7285393;19;20201;-85
2024/02/02 07:55:59;;;;;;;26.27;5.27;;;6.30;99.90;;;;;;7288854;19;20195;-85
2024/02/02 07:58:25;;;;;;;25.17;5.27;;;6.30;99.90;;;;;;7306310;19;20185;-85
2024/02/02 08:00:51;;;;;;;23.27;5.53;;;6.40;99.90;;;;;;7285567;19;20310;-85
2024/02/02 08:03:17;;;;;;;26.43;5.53;;;6.60;99.90;;;;;;7284608;19;20186;-84
2024/02/02 08:05:43;;;;;;;25.37;6.60;;;6.70;99.90;;;;;;7286229;19;20189;-86
2024/02/02 08:08:09;;;;;;;26.63;5.83;;;6.70;99.90;;;;;;7284959;19;20217;-84
2024/02/02 08:10:41;;;;;;;27.47;6.57;;;6.70;99.90;;;;;;7284986;19;20194;-84
2024/02/02 08:13:09;;;;;;;25.30;6.37;;;6.70;99.90;;;;;;7284586;19;20217;-84
2024/02/02 08:15:35;;;;;;;30.50;6.97;;;6.90;99.90;;;;;;7285287;19;20202;-85
2024/02/02 08:18:00;;;;;;;26.30;6.43;;;7.00;99.90;;;;;;7283473;19;20188;-83
2024/02/02 08:20:26;;;;;;;28.40;6.73;;;7.10;99.90;;;;;;7305285;19;20189;-84
2024/02/02 08:22:52;;;;;;;25.90;6.60;;;7.10;99.90;;;;;;7284999;19;20191;-84
2024/02/02 08:25:18;;;;;;;30.83;6.53;;;7.20;99.90;;;;;;7283010;19;20204;-84
2024/02/02 08:27:43;;;;;;;33.97;7.87;;;7.10;99.90;;;;;;7282483;19;20548;-85
2024/02/02 08:30:11;;;;;;;28.37;7.50;;;7.10;99.90;;;;;;7285178;19;20186;-85
2024/02/02 08:32:40;;;;;;;21.47;6.80;;;7.00;99.90;;;;;;7282078;19;20194;-84
2024/02/02 08:35:07;;;;;;;27.80;7.60;;;7.20;99.90;;;;;;7284228;19;20285;-84
2024/02/02 08:37:34;;;;;;;29.23;7.83;;;7.20;99.90;;;;;;7281283;19;20862;-84
2024/02/02 08:40:00;;;;;;;28.13;7.27;;;7.20;99.90;;;;;;7281964;19;20197;-83
2024/02/02 08:42:26;;;;;;;26.97;8.10;;;7.30;99.90;;;;;;7305423;19;20318;-83
2024/02/02 08:44:55;;;;;;;27.27;6.87;;;7.40;99.90;;;;;;7285369;19;20219;-84
2024/02/02 08:47:21;;;;;;;28.90;6.47;;;7.40;99.90;;;;;;7288393;19;20652;-84
2024/02/02 08:49:55;;;;;;;27.00;7.23;;;7.40;99.90;;;;;;7284598;19;20673;-83
2024/02/02 08:52:24;;;;;;;27.97;7.40;;;7.40;99.90;;;;;;7284491;19;20189;-82
2024/02/02 08:54:51;;;;;;;22.20;8.00;;;7.20;99.90;;;;;;7284627;19;20754;-84
2024/02/02 08:57:29;;;;;;;28.37;8.23;;;7.30;99.90;;;;;;7283040;19;20191;-84
2024/02/02 08:59:55;;;;;;;29.70;9.07;;;7.30;99.90;;;;;;7284686;19;20790;-83
2024/02/02 09:02:51;;;;;;;24.80;8.67;;;7.30;99.90;;;;;;7284726;19;20182;-83
2024/02/02 09:05:34;;;;;;;30.53;8.37;;;7.40;99.90;;;;;;7179029;19;2006097;-84
2024/02/02 09:08:33;;;;;;;28.00;8.57;;;7.50;99.90;;;;;;7263196;19;20190;-83
2024/02/02 09:10:59;;;;;;;30.17;7.77;;;7.60;99.90;;;;;;7267192;19;20594;-83
2024/02/02 09:13:28;;;;;;;26.03;9.47;;;7.60;99.90;;;;;;7302802;19;20267;-83
2024/02/02 09:15:54;;;;;;;27.33;8.60;;;7.70;99.90;;;;;;7281786;19;20180;-83
2024/02/02 09:18:33;;;;;;;27.53;8.13;;;7.70;99.90;;;;;;7278970;19;20186;-83
2024/02/02 09:21:00;;;;;;;25.47;8.13;;;7.60;99.90;;;;;;7270808;19;20581;-82
2024/02/02 09:23:29;;;;;;;32.87;8.87;;;7.60;99.90;;;;;;7304256;19;20182;-83
2024/02/02 09:25:55;;;;;;;26.10;8.47;;;7.70;99.90;;;;;;7280767;19;20180;-84
2024/02/02 09:28:23;;;;;;;29.30;8.43;;;7.80;99.90;;;;;;7282912;19;20576;-84
2024/02/02 09:30:57;;;;;;;30.50;8.73;;;7.70;99.90;;;;;;7280810;19;20182;-84
2024/02/02 09:33:43;;;;;;;31.53;9.20;;;7.80;99.90;;;;;;7283613;19;20195;-84
2024/02/02 09:36:11;;;;;;;30.37;9.33;;;7.70;99.90;;;;;;7180023;19;2004437;-84
2024/02/02 09:38:37;;;;;;;35.43;10.63;;;7.70;99.90;;;;;;7279165;19;20192;-85
2024/02/02 09:41:04;;;;;;;35.77;10.60;;;7.70;99.90;;;;;;7286607;19;20224;-82
2024/02/02 09:43:54;;;;;;;31.07;10.40;;;7.80;99.90;;;;;;7286428;19;20181;-84
2024/02/02 09:46:23;;;;;;;32.17;11.90;;;7.80;99.90;;;;;;7285898;19;20186;-84
2024/02/02 09:49:04;;;;;;;29.53;11.50;;;7.80;99.90;;;;;;7289377;19;20226;-84
2024/02/02 09:51:43;;;;;;;34.83;11.33;;;7.90;99.90;;;;;;7266342;19;20187;-84
2024/02/02 09:54:34;;;;;;;37.83;11.77;;;7.70;99.90;;;;;;7289152;19;20673;-85
2024/02/02 09:57:13;;;;;;;43.43;11.83;;;7.80;99.90;;;;;;7268596;19;20696;-84
2024/02/02 09:59:49;;;;;;;38.80;12.80;;;7.80;99.90;;;;;;7288016;19;20185;-85
2024/02/02 10:02:52;;;;;;;46.33;12.87;;;8.00;99.90;;;;;;7288880;19;20181;-85
2024/02/02 10:05:27;;;;;;;37.17;13.20;;;8.10;99.90;;;;;;7187384;19;2004397;-85
2024/02/02 10:08:02;;;;;;;44.30;12.80;;;8.10;99.90;;;;;;7286541;19;20526;-84
2024/02/02 10:11:18;;;;;;;39.33;13.37;;;8.00;99.90;;;;;;7288314;19;20188;-82
2024/02/02 10:14:17;;;;;;;46.77;13.40;;;8.20;99.90;;;;;;7084161;19;2004608;-84
2024/02/02 10:17:16;;;;;;;34.80;13.27;;;8.10;99.90;;;;;;7185643;19;2004482;-84
2024/02/02 10:19:42;;;;;;;38.07;13.77;;;8.20;99.90;;;;;;7185303;19;2004712;-84
2024/02/02 10:22:31;;;;;;;38.83;13.30;;;8.20;99.90;;;;;;7288292;19;20216;-84
2024/02/02 10:25:20;;;;;;;36.73;14.93;;;8.20;99.90;;;;;;7288494;19;20184;-85
2024/02/02 10:27:58;;;;;;;40.63;14.83;;;8.40;99.90;;;;;;7193461;19;2004420;-85
2024/02/02 10:30:43;;;;;;;47.70;14.33;;;8.40;99.90;;;;;;7295057;19;20195;-85
2024/02/02 10:33:50;;;;;;;44.20;14.60;;;8.50;99.90;;;;;;7185946;19;2004439;-85
2024/02/02 10:36:43;;;;;;;45.37;14.90;;;8.60;99.90;;;;;;7185732;19;2004716;-85
2024/02/02 10:39:45;;;;;;;42.30;14.77;;;8.60;99.90;;;;;;7183372;19;2005003;-85
2024/02/02 10:42:19;;;;;;;41.07;15.77;;;8.60;99.90;;;;;;7186129;19;2004657;-84
2024/02/02 10:45:01;;;;;;;44.30;14.63;;;8.70;99.90;;;;;;7286981;19;20186;-83
2024/02/02 10:47:42;;;;;;;42.87;15.50;;;8.60;99.90;;;;;;7287940;19;20182;-84
2024/02/02 10:50:43;;;;;;;40.63;15.77;;;8.60;99.90;;;;;;7185571;19;2004640;-84
2024/02/02 10:53:20;;;;;;;47.17;16.73;;;8.60;99.90;;;;;;7184827;19;2004536;-84
2024/02/02 10:56:05;;;;;;;42.30;15.60;;;8.70;99.90;;;;;;7286412;19;20211;-84
2024/02/02 10:58:51;;;;;;;51.27;16.70;;;8.70;99.90;;;;;;7263227;19;20198;-84
2024/02/02 11:01:29;;;;;;;48.00;16.20;;;8.70;99.90;;;;;;7286717;19;20187;-84
2024/02/02 11:04:00;;;;;;;46.27;16.63;;;8.80;99.90;;;;;;7286911;19;20543;-84
2024/02/02 11:06:45;;;;;;;48.80;16.83;;;8.90;99.90;;;;;;7288143;19;20256;-84
2024/02/02 11:09:52;;;;;;;43.03;17.07;;;8.90;99.90;;;;;;7178952;19;2004744;-84
2024/02/02 11:12:36;;;;;;;43.10;17.70;;;8.90;99.90;;;;;;7180911;19;2004856;-83
2024/02/02 11:15:42;;;;;;;41.93;16.63;;;8.90;99.90;;;;;;7269709;19;20199;-83
2024/02/02 11:18:37;;;;;;;43.37;17.57;;;8.90;99.90;;;;;;7183253;19;2006011;-84
2024/02/02 11:21:32;;;;;;;46.03;18.20;;;9.00;99.90;;;;;;7184462;19;2004640;-83
2024/02/02 11:24:42;;;;;;;46.03;17.83;;;9.10;99.90;;;;;;7283230;19;20181;-83
2024/02/02 11:27:19;;;;;;;45.73;18.00;;;9.20;99.90;;;;;;7082110;19;2004977;-83
2024/02/02 11:30:05;;;;;;;47.57;18.20;;;9.10;99.90;;;;;;7279157;19;20214;-82
2024/02/02 11:32:52;;;;;;;46.00;18.20;;;9.20;99.90;;;;;;7265187;19;20193;-83
2024/02/02 11:36:02;;;;;;;46.50;18.73;;;9.20;99.90;;;;;;7287034;19;21536;-84
2024/02/02 11:38:37;;;;;;;46.47;18.13;;;9.20;99.90;;;;;;7184627;19;2004825;-83
2024/02/02 11:41:03;;;;;;;45.43;19.67;;;9.30;99.90;;;;;;7264979;19;20198;-84
2024/02/02 11:43:30;;;;;;;42.77;18.10;;;9.40;99.90;;;;;;7299639;19;20191;-81
2024/02/02 11:45:57;;;;;;;39.70;17.90;;;9.40;99.90;;;;;;7306350;19;20198;-82
2024/02/02 11:48:49;;;;;;;41.10;17.77;;;9.40;99.90;;;;;;7288008;19;20187;-83
2024/02/02 11:51:16;;;;;;;41.23;17.50;;;9.40;99.90;;;;;;7181327;19;2005025;-83
2024/02/02 11:54:01;;;;;;;45.07;18.23;;;9.40;99.90;;;;;;7284404;19;20223;-82
2024/02/02 11:56:38;;;;;;;47.53;18.67;;;9.40;99.90;;;;;;7289054;19;20188;-82
2024/02/02 11:59:12;;;;;;;43.70;18.43;;;9.50;99.90;;;;;;7184426;19;2004462;-82
2024/02/02 12:01:44;;;;;;;43.23;17.93;;;9.50;99.90;;;;;;7284785;19;20878;-82
2024/02/02 12:04:37;;;;;;;39.97;19.33;;;9.30;99.90;;;;;;7286889;19;20190;-82
2024/02/02 12:07:21;;;;;;;44.17;17.97;;;9.20;99.90;;;;;;7181135;19;2004441;-83
2024/02/02 12:09:52;;;;;;;45.20;18.53;;;9.30;99.90;;;;;;7284954;19;20197;-83
2024/02/02 12:12:30;;;;;;;44.10;18.00;;;9.40;99.90;;;;;;7285000;19;20334;-83
2024/02/02 12:14:56;;;;;;;45.00;19.50;;;9.50;99.90;;;;;;7286729;19;20190;-83
2024/02/02 12:17:22;;;;;;;41.40;19.17;;;9.40;99.90;;;;;;7285332;19;20212;-83
2024/02/02 12:19:48;;;;;;;44.13;19.30;;;9.30;99.90;;;;;;7289797;19;20219;-82
2024/02/02 12:22:14;;;;;;;42.47;18.93;;;9.40;99.90;;;;;;7306416;19;20203;-82
2024/02/02 12:24:41;;;;;;;46.43;19.77;;;9.30;99.90;;;;;;7305807;19;20190;-80
2024/02/02 12:27:08;;;;;;;44.23;17.10;;;9.30;99.90;;;;;;7309172;19;20223;-82
2024/02/02 12:29:38;;;;;;;46.17;18.90;;;9.20;99.90;;;;;;7288048;19;20201;-82
2024/02/02 12:32:05;;;;;;;46.77;20.03;;;9.10;99.90;;;;;;7285070;19;20286;-82
2024/02/02 12:34:32;;;;;;;48.93;20.57;;;9.20;99.90;;;;;;7285207;19;20302;-83
2024/02/02 12:36:59;;;;;;;43.43;19.80;;;9.30;99.90;;;;;;7307289;19;20274;-84
2024/02/02 12:39:30;;;;;;;40.47;19.43;;;9.30;99.90;;;;;;7290782;19;20197;-85
2024/02/02 12:41:59;;;;;;;45.83;19.33;;;9.30;99.90;;;;;;7292854;19;20206;-84
2024/02/02 12:44:26;;;;;;;44.40;19.10;;;9.40;99.90;;;;;;7286418;19;20190;-84
2024/02/02 12:46:52;;;;;;;45.73;19.37;;;9.40;99.90;;;;;;7285981;19;20201;-84
2024/02/02 12:49:19;;;;;;;43.87;20.23;;;9.40;99.90;;;;;;7283869;19;20879;-84
2024/02/02 12:51:45;;;;;;;44.27;18.87;;;9.30;99.90;;;;;;7284061;19;20210;-84
2024/02/02 12:54:11;;;;;;;48.90;20.30;;;9.50;99.90;;;;;;7289908;19;20204;-83
2024/02/02 12:56:37;;;;;;;49.33;19.80;;;9.60;99.90;;;;;;7287703;19;20193;-84